Betws-y-Coed, United Kingdom
Current Conditions -  °F | °C
As of 12:50 PM on Sunday 21 Dec 2014 (Local Time) from EGOV Reporting Station
Haze Haze  
Wind Chill: 52°   Ceiling: 900
Heat Index: 52°   Visibility: 6mi
Dew Point: 48°   Wind: 33mph
Humidity: 88%   Direction: 220°SW
Pressure: 30.09"   Gusts: 45mph
Location:  53.09°N, 3.81°W
Report Text: EGOV 211250Z AUTO 22029G39KT 9000 HZ BKN009/// BKN090/// 11/09 Q1019
Loading
Personal Weather Stations






























Interactive Weather Map New forecast layout! Learn more

10-Day Weather Forecast

Advertisements
Track Severe Weather on mobile